Time;durP1;ratioP1;P1;durP2;ratioP2;P2;SDS_P1;SDS_P2;PMS_P1;PMS_P2;Temp;Humidity;BMP_temperature;BMP_pressure;BME280_temperature;BME280_humidity;BME280_pressure;Samples;Min_cycle;Max_cycle;Signal;HPM_P1;HPM_P2
2022/05/05 00:01:34;;;;;;;15.40;9.43;;;;;;;19.99;46.70;102119.06;5061449;28;20598;-52
2022/05/05 00:04:02;;;;;;;15.32;9.20;;;;;;;19.97;46.71;102120.03;5060693;28;20130;-49
2022/05/05 00:06:29;;;;;;;17.20;9.30;;;;;;;19.96;46.63;102121.03;5060850;28;20044;-49
2022/05/05 00:08:55;;;;;;;13.13;8.60;;;;;;;19.94;46.72;102124.88;5059751;28;20044;-50
2022/05/05 00:17:07;;;;;;;14.43;8.60;;;;;;;19.89;46.29;102119.84;5027367;28;20904;-51
2022/05/05 00:19:38;;;;;;;13.88;8.32;;;;;;;19.88;46.39;102122.69;5055334;28;20068;-52
2022/05/05 00:22:06;;;;;;;12.98;8.30;;;;;;;19.88;46.94;102128.06;5061455;28;20048;-50
2022/05/05 00:24:33;;;;;;;13.60;8.48;;;;;;;19.87;46.32;102118.31;5061487;28;20052;-49
2022/05/05 00:27:00;;;;;;;13.32;8.07;;;;;;;19.84;46.21;102119.41;5062910;28;20127;-50
2022/05/05 00:29:26;;;;;;;14.48;8.80;;;;;;;19.84;46.09;102121.25;5065706;28;20051;-49
2022/05/05 00:31:53;;;;;;;14.93;8.23;;;;;;;19.82;46.87;102120.53;5065321;28;20444;-49
2022/05/05 00:34:20;;;;;;;13.38;7.95;;;;;;;19.81;46.91;102116.16;5063609;28;20043;-48
2022/05/05 00:36:46;;;;;;;12.68;7.10;;;;;;;19.80;46.74;102119.81;5067323;28;20131;-48
2022/05/05 00:39:13;;;;;;;12.85;8.10;;;;;;;19.80;46.75;102119.81;5069497;28;20052;-51
2022/05/05 00:41:43;;;;;;;14.20;8.65;;;;;;;19.79;46.59;102126.19;5066719;28;20055;-52
2022/05/05 00:44:10;;;;;;;12.90;7.60;;;;;;;19.78;47.12;102116.41;5069210;28;20056;-51
2022/05/05 00:46:38;;;;;;;13.38;7.20;;;;;;;19.76;47.15;102124.63;5066250;28;20067;-49
2022/05/05 00:49:05;;;;;;;14.07;8.13;;;;;;;19.75;46.59;102114.84;5066596;28;20056;-49
2022/05/05 00:51:32;;;;;;;14.35;7.65;;;;;;;19.73;46.60;102116.81;5067175;28;20482;-49
2022/05/05 00:53:59;;;;;;;12.68;7.28;;;;;;;19.71;47.07;102119.66;5070731;28;20049;-51
2022/05/05 00:56:27;;;;;;;11.68;7.47;;;;;;;19.70;46.55;102119.78;5067182;28;20079;-52
2022/05/05 00:58:56;;;;;;;13.98;7.38;;;;;;;19.69;46.47;102126.13;5065084;28;20040;-53
2022/05/05 01:01:30;;;;;;;11.85;7.20;;;;;;;19.69;47.30;102126.97;5067859;28;20053;-51
2022/05/05 01:03:57;;;;;;;10.77;7.25;;;;;;;19.68;46.60;102121.75;5068745;28;20098;-51
2022/05/05 01:06:24;;;;;;;10.27;6.75;;;;;;;19.68;46.72;102119.06;5066410;28;20507;-52
2022/05/05 01:08:50;;;;;;;13.20;7.57;;;;;;;19.65;47.13;102117.47;5068105;28;20070;-50
2022/05/05 01:11:17;;;;;;;12.13;6.63;;;;;;;19.65;47.20;102124.69;5062498;28;20942;-51
2022/05/05 01:13:43;;;;;;;11.43;6.82;;;;;;;19.64;47.00;102120.31;5070947;28;20058;-51
2022/05/05 01:16:11;;;;;;;10.07;7.10;;;;;;;19.62;46.50;102123.16;5066799;28;20045;-50
2022/05/05 01:18:38;;;;;;;14.18;7.65;;;;;;;19.61;47.41;102125.91;5063812;28;20048;-49
2022/05/05 01:21:08;;;;;;;13.13;7.28;;;;;;;19.61;47.28;102125.91;5065821;28;20082;-50
2022/05/05 01:23:35;;;;;;;9.88;6.25;;;;;;;19.59;46.81;102126.06;5066464;28;20047;-51
2022/05/05 01:28:48;;;;;;;10.43;6.72;;;;;;;19.56;47.56;102120.09;5064952;28;20057;-49
2022/05/05 01:31:14;;;;;;;11.57;6.80;;;;;;;19.55;47.28;102121.94;5065680;28;20052;-48
2022/05/05 01:33:41;;;;;;;10.18;6.53;;;;;;;19.56;47.34;102117.41;5065481;28;20049;-50
2022/05/05 01:36:08;;;;;;;11.55;6.90;;;;;;;19.56;47.04;102112.03;5066080;28;20060;-47
2022/05/05 01:38:37;;;;;;;9.70;6.13;;;;;;;19.55;47.14;102119.25;5066134;28;20043;-49
2022/05/05 01:41:05;;;;;;;12.23;6.15;;;;;;;19.53;47.30;102117.66;5065333;28;20057;-52
2022/05/05 01:43:32;;;;;;;10.98;6.38;;;;;;;19.53;47.56;102117.66;5063038;28;20499;-50
2022/05/05 01:45:59;;;;;;;9.80;6.13;;;;;;;19.52;47.78;102118.66;5067730;28;20045;-48
2022/05/05 01:48:27;;;;;;;10.98;6.25;;;;;;;19.51;47.09;102120.50;5064922;28;20040;-51
2022/05/05 01:50:53;;;;;;;9.70;6.22;;;;;;;19.51;47.75;102122.34;5069558;28;20036;-50
2022/05/05 01:53:20;;;;;;;9.70;5.72;;;;;;;19.51;47.33;102120.50;5065633;28;20046;-52
2022/05/05 01:55:47;;;;;;;8.43;5.65;;;;;;;19.51;47.63;102119.66;5066435;28;20415;-51
2022/05/05 01:58:13;;;;;;;11.63;6.63;;;;;;;19.50;47.70;102118.78;5064198;28;20290;-48
2022/05/05 02:00:40;;;;;;;10.23;5.68;;;;;;;19.50;47.82;102124.16;5064733;28;20112;-52
2022/05/05 02:03:12;;;;;;;9.55;6.13;;;;;;;19.49;47.24;102123.28;5067723;28;20048;-49
2022/05/05 02:05:44;;;;;;;8.43;5.75;;;;;;;19.51;47.23;102130.41;5068351;28;21106;-51
2022/05/05 02:08:12;;;;;;;9.63;6.10;;;;;;;19.51;47.10;102131.25;5059820;28;20134;-52
2022/05/05 02:10:39;;;;;;;9.05;5.90;;;;;;;19.51;47.21;102123.19;5068372;28;20331;-50
2022/05/05 02:13:06;;;;;;;9.27;5.15;;;;;;;19.51;47.61;102125.88;5067165;28;20616;-50
2022/05/05 02:15:34;;;;;;;10.35;6.13;;;;;;;19.51;47.29;102125.03;5065353;28;20073;-50
2022/05/05 02:18:12;;;;;;;8.93;5.75;;;;;;;19.51;47.84;102123.19;5064780;28;20045;-52
2022/05/05 02:20:40;;;;;;;9.80;5.70;;;;;;;19.53;46.96;102123.88;5066366;28;20053;-49
2022/05/05 02:23:07;;;;;;;8.10;5.40;;;;;;;19.56;47.54;102125.47;5063639;28;20041;-52
2022/05/05 02:25:34;;;;;;;10.45;5.55;;;;;;;19.59;47.61;102126.06;5065660;28;20515;-53
2022/05/05 02:28:01;;;;;;;8.48;5.30;;;;;;;19.61;47.46;102129.47;5067491;28;20044;-48
2022/05/05 02:30:28;;;;;;;9.07;5.63;;;;;;;19.62;46.69;102130.38;5068566;28;20041;-54
2022/05/05 02:32:55;;;;;;;8.82;5.57;;;;;;;19.65;47.03;102135.44;5063963;28;20054;-52
2022/05/05 02:35:22;;;;;;;8.88;5.53;;;;;;;19.65;47.03;102130.91;5063603;28;20163;-52
2022/05/05 02:40:34;;;;;;;8.45;5.55;;;;;;;19.64;47.40;102128.38;5064091;28;20041;-53
2022/05/05 02:43:01;;;;;;;8.73;5.22;;;;;;;19.66;47.38;102124.59;5065726;28;20052;-51
2022/05/05 02:45:28;;;;;;;6.45;4.72;;;;;;;19.69;46.71;102131.50;5066203;28;20183;-49
2022/05/05 02:47:55;;;;;;;9.25;5.07;;;;;;;19.70;47.36;102126.03;5061101;28;20045;-50
2022/05/05 02:50:22;;;;;;;9.00;5.32;;;;;;;19.69;46.75;102121.59;5063543;28;20044;-50
2022/05/05 02:52:48;;;;;;;7.50;4.20;;;;;;;19.71;46.55;102124.19;5065039;28;20110;-51
2022/05/05 02:55:16;;;;;;;8.80;4.75;;;;;;;19.71;47.02;102116.09;5059395;28;20045;-50
2022/05/05 02:57:42;;;;;;;8.25;5.00;;;;;;;19.72;46.92;102110.59;5046379;28;20115;-49
2022/05/05 03:00:13;;;;;;;6.35;4.40;;;;;;;19.71;46.95;102126.88;5060261;28;20127;-50
2022/05/05 03:02:41;;;;;;;8.00;4.78;;;;;;;19.70;47.27;102126.03;5066421;28;20123;-51
2022/05/05 03:05:10;;;;;;;6.65;4.55;;;;;;;19.72;47.17;102123.19;5066715;28;20047;-49
2022/05/05 03:07:37;;;;;;;6.03;4.35;;;;;;;19.73;47.05;102124.88;5062564;28;20467;-48
2022/05/05 03:10:04;;;;;;;8.55;4.55;;;;;;;19.74;46.41;102118.53;5063985;28;20048;-52
2022/05/05 03:12:31;;;;;;;8.98;5.20;;;;;;;19.74;47.18;102121.22;5068914;28;20297;-51
2022/05/05 03:14:57;;;;;;;6.90;4.65;;;;;;;19.75;46.84;102119.38;5062538;28;20127;-51
2022/05/05 03:17:24;;;;;;;6.85;4.35;;;;;;;19.75;46.90;102122.94;5066224;28;20052;-50
2022/05/05 03:19:50;;;;;;;7.57;4.60;;;;;;;19.75;47.23;102130.16;5063463;28;20139;-51
2022/05/05 03:22:17;;;;;;;7.85;4.75;;;;;;;19.75;46.69;102124.75;5065503;28;20083;-48
2022/05/05 03:24:44;;;;;;;7.85;4.65;;;;;;;19.75;47.13;102114.00;5062467;28;20533;-49
2022/05/05 03:27:10;;;;;;;8.25;4.93;;;;;;;19.71;46.75;102122.34;5065787;28;20052;-50
2022/05/05 03:29:37;;;;;;;8.60;5.03;;;;;;;19.70;46.58;102120.63;5064241;28;20036;-51
2022/05/05 03:32:04;;;;;;;7.20;4.80;;;;;;;19.69;46.77;102118.91;5063011;28;20596;-52
2022/05/05 03:34:30;;;;;;;6.95;4.50;;;;;;;19.70;46.62;102128.72;5064356;28;20059;-52
2022/05/05 03:36:57;;;;;;;8.52;4.50;;;;;;;19.70;47.15;102135.94;5064376;28;20078;-52
2022/05/05 03:39:23;;;;;;;7.30;4.45;;;;;;;19.70;46.63;102138.63;5065527;28;20079;-52
2022/05/05 03:41:50;;;;;;;8.50;4.93;;;;;;;19.68;47.21;102130.66;5064636;28;20055;-52
2022/05/05 03:44:17;;;;;;;6.57;4.22;;;;;;;19.68;46.92;102138.72;5064798;28;20311;-51
2022/05/05 03:46:43;;;;;;;8.57;4.50;;;;;;;19.68;46.75;102138.72;5064707;28;20131;-49
2022/05/05 03:49:10;;;;;;;7.18;4.18;;;;;;;19.68;47.14;102143.25;5066145;28;20106;-52
2022/05/05 03:51:37;;;;;;;7.28;4.53;;;;;;;19.67;47.20;102138.88;5059489;28;20041;-52
2022/05/05 03:54:04;;;;;;;6.82;3.85;;;;;;;19.68;47.18;102143.25;5064810;28;20052;-51
2022/05/05 03:56:30;;;;;;;6.22;4.32;;;;;;;19.68;46.93;102148.66;5062694;28;20041;-52
2022/05/05 03:58:57;;;;;;;7.78;4.53;;;;;;;19.68;47.34;102151.34;5065835;28;20100;-53
2022/05/05 04:01:23;;;;;;;9.63;4.70;;;;;;;19.67;46.88;102142.41;5067503;28;20349;-50
2022/05/05 04:03:50;;;;;;;10.00;4.50;;;;;;;19.68;47.61;102157.56;5068668;28;20044;-46
2022/05/05 04:06:18;;;;;;;7.72;3.97;;;;;;;19.69;47.55;102145.81;5067673;28;20044;-50
2022/05/05 04:08:45;;;;;;;11.40;4.53;;;;;;;19.69;47.46;102148.50;5069112;28;20058;-47
2022/05/05 04:11:12;;;;;;;10.13;4.43;;;;;;;19.71;46.96;102148.38;5067817;28;20052;-51
2022/05/05 04:13:39;;;;;;;15.57;4.85;;;;;;;19.71;47.17;102151.94;5070200;28;20052;-49
2022/05/05 04:16:08;;;;;;;15.95;4.85;;;;;;;19.70;47.39;102155.59;5063628;28;20053;-49
2022/05/05 04:18:36;;;;;;;14.63;4.72;;;;;;;19.69;47.19;102150.34;5064535;28;20079;-46
2022/05/05 04:21:03;;;;;;;10.60;4.40;;;;;;;19.68;47.32;102154.88;5062533;28;20087;-49
2022/05/05 04:23:30;;;;;;;16.17;4.80;;;;;;;19.68;47.16;102154.88;5070405;28;20043;-51
2022/05/05 04:26:13;;;;;;;18.08;5.65;;;;;;;19.68;46.60;102157.56;5070078;28;20052;-46
2022/05/05 04:28:42;;;;;;;11.95;5.30;;;;;;;19.68;47.43;102157.56;5071149;28;20052;-48
2022/05/05 04:31:11;;;;;;;14.05;5.72;;;;;;;19.66;47.03;102161.38;5069684;28;20053;-49
2022/05/05 04:33:38;;;;;;;16.58;5.50;;;;;;;19.67;47.11;102171.16;5064652;28;20141;-51
2022/05/05 04:36:07;;;;;;;13.18;5.85;;;;;;;19.66;46.87;102167.63;5067282;28;20045;-50
2022/05/05 04:38:34;;;;;;;10.88;6.20;;;;;;;19.66;46.54;102166.78;5071467;28;20128;-52
2022/05/05 04:41:01;;;;;;;15.10;7.13;;;;;;;19.65;47.22;102163.19;5067031;28;20051;-51
2022/05/05 04:43:28;;;;;;;14.02;6.80;;;;;;;19.63;47.14;102165.19;5067207;28;20037;-51
2022/05/05 04:45:54;;;;;;;25.38;6.82;;;;;;;19.62;47.21;102168.03;5064969;28;20059;-52
2022/05/05 04:48:21;;;;;;;16.48;6.70;;;;;;;19.60;47.03;102172.63;5068185;28;20037;-51
2022/05/05 04:50:47;;;;;;;14.93;6.97;;;;;;;19.59;47.03;102168.25;5068505;28;20104;-52
2022/05/05 04:53:14;;;;;;;16.92;7.30;;;;;;;19.59;46.82;102170.94;5069209;28;20128;-52
2022/05/05 04:55:40;;;;;;;12.75;6.63;;;;;;;19.57;46.63;102171.03;5066254;28;20345;-51
2022/05/05 04:58:07;;;;;;;14.05;7.53;;;;;;;19.56;47.09;102172.03;5068020;28;20155;-49
2022/05/05 05:00:35;;;;;;;20.65;8.85;;;;;;;19.55;46.91;102170.34;5066773;28;20399;-50
2022/05/05 05:03:02;;;;;;;16.27;7.28;;;;;;;19.55;46.69;102172.19;5064701;28;20045;-51
2022/05/05 05:05:29;;;;;;;15.63;7.78;;;;;;;19.54;46.93;102175.81;5066177;28;20041;-46
2022/05/05 05:07:56;;;;;;;15.35;8.10;;;;;;;19.54;47.19;102182.09;5070770;28;20128;-49
2022/05/05 05:10:22;;;;;;;20.30;8.25;;;;;;;19.53;47.16;102187.56;5066992;28;20328;-50
2022/05/05 05:12:49;;;;;;;14.05;7.50;;;;;;;19.52;47.33;102192.09;5067545;28;20563;-51
2022/05/05 05:15:15;;;;;;;16.83;8.10;;;;;;;19.52;47.23;102186.72;5067170;28;20045;-49
2022/05/05 05:17:42;;;;;;;15.05;7.82;;;;;;;19.52;46.97;102196.63;5071808;28;20051;-51
2022/05/05 05:20:09;;;;;;;16.98;8.63;;;;;;;19.51;47.41;102198.47;5069681;28;20063;-49
2022/05/05 05:22:37;;;;;;;23.08;9.02;;;;;;;19.51;47.32;102200.31;5068480;28;20052;-50
2022/05/05 05:25:04;;;;;;;13.95;7.97;;;;;;;19.50;46.95;102202.16;5066825;28;20316;-48
2022/05/05 05:27:30;;;;;;;15.68;8.43;;;;;;;19.50;46.56;102199.47;5070095;28;20052;-52
2022/05/05 05:29:56;;;;;;;16.52;8.38;;;;;;;19.51;46.94;102211.06;5068630;28;20351;-48
2022/05/05 05:32:23;;;;;;;13.85;8.18;;;;;;;19.51;47.07;102221.84;5069579;28;20131;-52
2022/05/05 05:34:50;;;;;;;15.60;8.30;;;;;;;19.51;47.27;102216.44;5065433;28;20127;-47
2022/05/05 05:37:17;;;;;;;13.38;8.20;;;;;;;19.52;47.13;102215.47;5067479;28;20143;-47
2022/05/05 05:39:43;;;;;;;14.40;8.00;;;;;;;19.51;47.16;102213.75;5063365;28;20127;-53
2022/05/05 05:42:10;;;;;;;17.38;7.95;;;;;;;19.51;46.71;102224.53;5071199;28;20044;-50
2022/05/05 05:44:36;;;;;;;17.15;9.32;;;;;;;19.51;46.41;102230.75;5066643;28;20373;-51
2022/05/05 05:47:03;;;;;;;15.18;8.85;;;;;;;19.52;46.36;102228.91;5072047;28;20051;-48
2022/05/05 05:49:30;;;;;;;16.75;8.77;;;;;;;19.52;46.54;102228.91;5069039;28;20036;-48
2022/05/05 05:51:56;;;;;;;16.73;8.50;;;;;;;19.51;47.08;102233.44;5069570;28;20136;-51
2022/05/05 05:54:23;;;;;;;16.40;8.75;;;;;;;19.52;47.00;102232.44;5068517;28;20687;-50
2022/05/05 05:56:49;;;;;;;16.02;8.13;;;;;;;19.52;47.03;102237.81;5070883;28;20113;-50
2022/05/05 05:59:16;;;;;;;16.08;8.32;;;;;;;19.53;47.00;102231.47;5070186;28;20060;-50
2022/05/05 06:04:29;;;;;;;15.30;8.20;;;;;;;19.53;46.92;102235.97;5066903;28;20423;-49
2022/05/05 06:06:55;;;;;;;14.75;8.07;;;;;;;19.53;46.58;102234.16;5070149;28;20046;-47
2022/05/05 06:09:22;;;;;;;17.25;8.40;;;;;;;19.53;46.74;102231.47;5070634;28;20052;-50
2022/05/05 06:11:49;;;;;;;16.15;8.15;;;;;;;19.55;46.53;102226.81;5070158;28;20483;-52
2022/05/05 06:14:15;;;;;;;13.77;8.23;;;;;;;19.56;46.59;102236.59;5070518;28;20037;-51
2022/05/05 06:16:42;;;;;;;14.77;8.32;;;;;;;19.56;46.29;102243.81;5068884;28;20056;-52
2022/05/05 06:19:08;;;;;;;13.15;7.70;;;;;;;19.56;46.54;102247.34;5070504;28;20305;-48
2022/05/05 06:21:35;;;;;;;13.35;8.07;;;;;;;19.56;46.33;102238.41;5068003;28;20482;-48
2022/05/05 06:24:02;;;;;;;15.20;8.20;;;;;;;19.56;46.38;102241.13;5068260;28;20488;-50
2022/05/05 06:26:28;;;;;;;13.88;7.68;;;;;;;19.55;46.23;102237.56;5069111;28;20119;-50
2022/05/05 06:28:55;;;;;;;12.77;7.88;;;;;;;19.54;46.35;102240.38;5065738;28;20144;-49
2022/05/05 06:31:23;;;;;;;13.02;7.35;;;;;;;19.55;46.22;102253.72;5068185;28;20611;-50
2022/05/05 06:33:50;;;;;;;15.15;8.15;;;;;;;19.55;46.15;102255.53;5069165;28;20659;-48
2022/05/05 06:36:17;;;;;;;13.82;7.85;;;;;;;19.56;46.36;102258.09;5069731;28;20127;-52
2022/05/05 06:38:43;;;;;;;15.52;7.78;;;;;;;19.57;46.46;102253.56;5068577;28;20055;-49
2022/05/05 06:41:13;;;;;;;17.40;8.02;;;;;;;19.57;46.05;102264.31;5067166;28;20052;-49
2022/05/05 06:43:40;;;;;;;14.60;7.53;;;;;;;19.57;46.20;102264.31;5068046;28;20440;-50
2022/05/05 06:46:07;;;;;;;17.00;7.93;;;;;;;19.58;46.53;102266.91;5067407;28;20604;-51
2022/05/05 06:48:34;;;;;;;11.95;7.03;;;;;;;19.59;46.29;102268.59;5066037;28;20461;-50
2022/05/05 06:51:01;;;;;;;13.55;7.28;;;;;;;19.58;45.96;102274.97;5068053;28;20052;-51
2022/05/05 06:53:28;;;;;;;12.95;7.75;;;;;;;19.61;46.65;102271.16;5066292;28;20059;-51
2022/05/05 06:55:57;;;;;;;14.95;8.27;;;;;;;19.60;46.07;102273.00;5068891;28;20046;-51
2022/05/05 06:58:24;;;;;;;20.13;8.40;;;;;;;19.62;45.96;102276.47;5068936;28;20102;-50
2022/05/05 07:03:36;;;;;;;13.20;7.05;;;;;;;19.62;46.26;102279.16;5065571;28;20044;-50
2022/05/05 07:06:03;;;;;;;17.50;7.55;;;;;;;19.63;45.81;102280.84;5067423;28;20335;-52
2022/05/05 07:10:52;;;;;;;13.88;7.70;;;;;;;19.64;46.27;102279.84;5068563;28;20068;-49
2022/05/05 07:11:16;;;;;;;11.95;6.90;;;;;;;19.64;45.80;102285.22;5065203;28;20139;-51
2022/05/05 07:13:43;;;;;;;17.48;7.75;;;;;;;19.65;45.72;102292.31;5066540;28;20123;-49
2022/05/05 07:16:09;;;;;;;17.20;8.30;;;;;;;19.65;45.82;102284.25;5067341;28;20041;-50
2022/05/05 07:18:36;;;;;;;20.90;9.32;;;;;;;19.65;45.84;102292.31;5066070;28;20051;-50
2022/05/05 07:21:04;;;;;;;18.70;8.60;;;;;;;19.68;45.95;102294.75;5063538;28;20061;-50
2022/05/05 07:23:31;;;;;;;15.25;7.95;;;;;;;19.69;46.43;102299.13;5054088;28;20116;-50
2022/05/05 07:25:57;;;;;;;31.73;11.35;;;;;;;19.69;46.49;102293.75;5054207;28;20048;-52
2022/05/05 07:28:24;;;;;;;50.95;15.80;;;;;;;19.71;46.30;102291.81;5056445;28;20579;-54
2022/05/05 07:30:52;;;;;;;46.83;16.67;;;;;;;19.72;45.78;102296.19;5046725;28;20120;-50
2022/05/05 07:33:20;;;;;;;47.70;16.85;;;;;;;19.73;46.44;102292.50;5043210;28;20042;-52
2022/05/05 07:35:48;;;;;;;62.67;18.98;;;;;;;19.75;46.09;102299.63;5056799;28;20125;-50
2022/05/05 07:38:14;;;;;;;65.80;20.13;;;;;;;19.75;46.22;102302.31;5055021;28;20124;-49
2022/05/05 07:40:46;;;;;;;70.07;22.75;;;;;;;19.76;46.39;102294.09;5049263;28;20095;-51
2022/05/05 07:43:13;;;;;;;72.32;27.35;;;;;;;19.77;46.38;102297.66;5054389;28;20129;-52
2022/05/05 07:45:40;;;;;;;82.63;27.95;;;;;;;19.79;46.25;102298.38;5050986;28;20123;-51
2022/05/05 07:48:07;;;;;;;90.13;31.35;;;;;;;19.80;45.59;102300.09;5047838;28;20075;-51
2022/05/05 07:50:34;;;;;;;108.50;34.28;;;;;;;19.81;46.23;102307.16;5050854;28;20484;-51
2022/05/05 07:53:00;;;;;;;123.72;39.53;;;;;;;19.81;46.04;102299.09;5051505;28;20149;-51
2022/05/05 07:55:27;;;;;;;134.30;45.08;;;;;;;19.82;45.85;102309.75;5056017;28;20074;-48
2022/05/05 07:57:53;;;;;;;124.35;43.25;;;;;;;19.83;46.15;102306.06;5053330;28;20141;-50
2022/05/05 08:00:21;;;;;;;139.65;44.13;;;;;;;19.82;45.90;102314.25;5050044;28;20043;-52
2022/05/05 08:02:48;;;;;;;118.18;40.92;;;;;;;19.83;45.26;102310.59;5050020;28;20072;-50
2022/05/05 08:05:15;;;;;;;140.63;43.58;;;;;;;19.83;45.32;102310.59;5051388;28;20120;-49
2022/05/05 08:07:47;;;;;;;133.38;43.42;;;;;;;19.84;45.85;102317.69;5049063;28;20420;-50
2022/05/05 08:10:14;;;;;;;126.40;43.20;;;;;;;19.86;45.63;102313.00;5050143;28;20128;-52
2022/05/05 08:12:41;;;;;;;133.63;44.10;;;;;;;19.86;45.18;102326.47;5054244;28;20144;-51
2022/05/05 08:15:08;;;;;;;125.20;44.70;;;;;;;19.85;45.25;102317.53;5055599;28;20078;-52
2022/05/05 08:17:35;;;;;;;114.63;42.25;;;;;;;19.87;45.93;102325.50;5053043;28;20067;-51
2022/05/05 08:20:03;;;;;;;122.97;43.22;;;;;;;19.87;45.46;102320.13;5048039;28;20056;-52
2022/05/05 08:22:30;;;;;;;121.35;42.80;;;;;;;19.88;45.54;102321.81;5048016;28;20119;-52
2022/05/05 08:30:27;;;;;;;118.38;42.78;;;;;;;19.88;45.84;102333.44;5057253;28;20644;-53
2022/05/05 08:32:53;;;;;;;123.68;44.65;;;;;;;19.89;45.89;102334.28;5049983;28;20075;-52
2022/05/05 08:35:22;;;;;;;106.82;39.03;;;;;;;19.90;45.16;102341.34;5056441;28;20076;-51
2022/05/05 08:37:50;;;;;;;109.80;43.40;;;;;;;19.89;45.23;102335.13;5066141;28;20135;-48
2022/05/05 08:40:18;;;;;;;113.85;43.70;;;;;;;19.90;45.25;102341.34;5064598;28;20044;-52
2022/05/05 08:42:44;;;;;;;116.05;40.88;;;;;;;19.90;45.33;102344.94;5064097;28;20072;-52
2022/05/05 08:45:11;;;;;;;105.57;38.67;;;;;;;19.91;45.91;102333.19;5064951;28;20072;-51
2022/05/05 08:47:40;;;;;;;105.13;40.67;;;;;;;19.93;45.29;102351.88;5068537;28;20059;-51
2022/05/05 08:50:11;;;;;;;90.28;36.13;;;;;;;19.91;45.24;102349.31;5061967;28;20060;-52
2022/05/05 08:52:48;;;;;;;88.70;35.53;;;;;;;19.93;45.39;102351.88;5064701;28;20048;-52
2022/05/05 08:55:16;;;;;;;97.78;35.55;;;;;;;19.93;46.03;102349.19;5055914;28;20030;-55
2022/05/05 08:57:43;;;;;;;106.47;36.85;;;;;;;19.93;46.07;102346.50;5067521;28;20049;-50
2022/05/05 09:00:11;;;;;;;95.63;38.15;;;;;;;19.94;45.40;102349.06;5070673;28;20231;-50
2022/05/05 09:02:38;;;;;;;120.93;35.92;;;;;;;19.96;45.61;102351.63;5070607;28;20076;-50
2022/05/05 09:05:07;;;;;;;105.13;36.50;;;;;;;19.98;46.16;102363.13;5066889;28;20041;-50
2022/05/05 09:07:48;;;;;;;118.07;36.40;;;;;;;19.98;45.85;102360.44;5061886;28;20055;-49
2022/05/05 09:10:19;;;;;;;96.53;35.22;;;;;;;20.00;45.76;102363.84;5067294;28;20135;-52
2022/05/05 09:13:01;;;;;;;98.47;38.28;;;;;;;20.00;46.25;102360.28;5069250;28;20072;-49
2022/05/05 09:15:40;;;;;;;94.72;37.97;;;;;;;20.00;46.08;102363.84;5060573;28;20095;-49
2022/05/05 09:18:16;;;;;;;89.90;35.45;;;;;;;20.01;46.09;102367.38;5067460;28;20385;-52
2022/05/05 09:20:44;;;;;;;97.72;36.17;;;;;;;20.00;46.22;102369.22;5070795;28;20044;-53
2022/05/05 09:23:34;;;;;;;101.30;35.28;;;;;;;20.01;45.70;102367.38;5069519;28;20148;-54
2022/05/05 09:26:03;;;;;;;96.30;37.28;;;;;;;20.04;46.43;102367.97;5063608;28;20057;-51
2022/05/05 09:28:35;;;;;;;101.20;39.47;;;;;;;20.04;46.63;102370.66;5070480;28;20037;-50
2022/05/05 09:31:10;;;;;;;98.28;38.45;;;;;;;20.06;46.71;102371.41;5068157;28;20044;-52
2022/05/05 09:33:39;;;;;;;106.32;39.63;;;;;;;20.07;46.33;102367.72;5065220;28;20339;-52
2022/05/05 09:36:08;;;;;;;92.32;40.00;;;;;;;20.09;46.59;102379.19;5067824;28;20037;-51
2022/05/05 09:38:55;;;;;;;87.93;38.63;;;;;;;20.09;46.49;102378.34;5072637;28;20047;-54
2022/05/05 09:41:29;;;;;;;93.63;36.92;;;;;;;20.10;46.11;102372.84;5069178;28;20051;-52
2022/05/05 09:43:57;;;;;;;94.15;38.35;;;;;;;20.11;45.97;102371.84;5070182;28;20140;-49
2022/05/05 09:46:26;;;;;;;102.78;41.25;;;;;;;20.12;46.21;102376.25;5070777;28;20412;-50
2022/05/05 09:49:03;;;;;;;101.78;39.33;;;;;;;20.12;46.26;102381.63;5068959;28;20515;-51
2022/05/05 09:51:30;;;;;;;80.80;37.25;;;;;;;20.14;46.64;102379.69;5068122;28;20051;-49
2022/05/05 09:59:40;;;;;;;91.28;36.60;;;;;;;20.18;46.30;102386.50;5027389;28;20087;-49
2022/05/05 10:05:17;;;;;;;86.78;36.33;;;;;;;20.21;46.12;102382.69;5069661;28;20151;-50
2022/05/05 10:07:45;;;;;;;86.72;37.85;;;;;;;20.21;46.18;102388.06;5066865;28;20071;-50
2022/05/05 10:10:16;;;;;;;87.18;34.95;;;;;;;20.21;46.66;102386.22;5070321;28;20108;-52
2022/05/05 10:12:43;;;;;;;85.57;36.17;;;;;;;20.24;46.70;102393.22;5069951;28;20139;-52
2022/05/05 10:15:11;;;;;;;85.65;34.70;;;;;;;20.25;46.75;102380.59;5070976;28;20054;-49
2022/05/05 10:17:39;;;;;;;84.82;37.28;;;;;;;20.26;46.79;102393.06;5067119;28;20044;-52
2022/05/05 10:20:06;;;;;;;80.00;35.63;;;;;;;20.28;46.29;102383.03;5064781;28;20052;-49
2022/05/05 10:22:40;;;;;;;77.68;33.88;;;;;;;20.28;46.21;102388.41;5067528;28;20048;-53
2022/05/05 10:25:13;;;;;;;80.80;34.45;;;;;;;20.29;46.88;102395.50;5066263;28;20032;-51
2022/05/05 10:27:43;;;;;;;72.70;32.50;;;;;;;20.31;47.02;102390.84;5063953;28;20236;-52
2022/05/05 10:30:15;;;;;;;79.00;33.72;;;;;;;20.32;46.18;102392.56;5069632;28;20045;-52
2022/05/05 10:32:42;;;;;;;65.63;32.10;;;;;;;20.33;46.68;102391.56;5069350;28;20135;-49
2022/05/05 10:35:22;;;;;;;65.50;32.85;;;;;;;20.34;46.52;102393.25;5071105;28;20139;-50
2022/05/05 10:37:49;;;;;;;76.93;33.60;;;;;;;20.36;46.63;102394.00;5065903;28;20064;-49
2022/05/05 10:40:16;;;;;;;67.13;31.20;;;;;;;20.37;46.34;102395.69;5068650;28;20049;-52
2022/05/05 10:42:51;;;;;;;64.88;31.85;;;;;;;20.38;46.70;102392.91;5065895;28;20044;-49
2022/05/05 10:45:27;;;;;;;66.50;30.83;;;;;;;20.39;46.77;102396.44;5067833;28;20401;-53
2022/05/05 10:48:06;;;;;;;72.28;31.17;;;;;;;20.39;46.35;102389.22;5066975;28;20469;-51
2022/05/05 10:50:53;;;;;;;65.30;30.52;;;;;;;20.41;46.57;102391.75;5061756;28;20094;-52
2022/05/05 10:53:28;;;;;;;62.75;30.13;;;;;;;20.42;46.51;102398.84;5068078;28;20052;-49
2022/05/05 10:55:55;;;;;;;58.90;29.35;;;;;;;20.43;46.34;102398.72;5064892;28;20094;-54
2022/05/05 10:58:54;;;;;;;63.03;29.27;;;;;;;20.44;46.79;102402.28;5062643;28;20131;-50
2022/05/05 11:01:21;;;;;;;66.32;28.77;;;;;;;20.48;46.83;102402.88;5063824;28;20419;-52
2022/05/05 11:04:17;;;;;;;70.38;28.95;;;;;;;20.48;47.12;102400.19;5069024;28;20037;-51
2022/05/05 11:06:48;;;;;;;71.35;29.35;;;;;;;20.49;46.85;102405.44;5063798;28;20049;-52
2022/05/05 11:09:36;;;;;;;70.72;30.02;;;;;;;20.49;47.25;102408.16;5065217;28;20044;-51
2022/05/05 11:12:16;;;;;;;60.30;27.58;;;;;;;20.51;47.04;102410.72;5066724;28;20051;-50
2022/05/05 11:23:42;;;;;;;60.70;26.92;;;;;;;20.54;46.97;102405.91;5068285;28;20044;-49
2022/05/05 11:26:09;;;;;;;53.25;24.95;;;;;;;20.55;46.60;102399.56;5064238;28;20136;-51
2022/05/05 11:28:36;;;;;;;57.47;25.85;;;;;;;20.56;47.19;102405.78;5067519;28;20117;-50
2022/05/05 11:31:03;;;;;;;50.10;25.35;;;;;;;20.56;46.53;102405.78;5065171;28;20132;-51
2022/05/05 11:33:30;;;;;;;49.97;24.35;;;;;;;20.57;46.99;102408.34;5067297;28;20044;-52
2022/05/05 11:36:02;;;;;;;50.42;26.58;;;;;;;20.57;46.91;102397.56;5064333;28;20127;-49
2022/05/05 11:38:29;;;;;;;50.15;25.63;;;;;;;20.59;46.71;102405.53;5068873;28;20109;-51
2022/05/05 11:41:03;;;;;;;49.70;24.52;;;;;;;20.60;46.60;102404.53;5067019;28;20080;-54
2022/05/05 11:46:17;;;;;;;49.92;24.73;;;;;;;20.61;46.39;102412.47;5065195;28;20458;-51
2022/05/05 11:48:50;;;;;;;45.78;22.88;;;;;;;20.62;46.44;102411.50;5063773;28;20317;-51
2022/05/05 11:51:23;;;;;;;43.03;22.90;;;;;;;20.63;46.64;102402.44;5068059;28;20045;-52
2022/05/05 11:53:57;;;;;;;46.78;22.45;;;;;;;20.64;46.29;102406.81;5068041;28;20069;-53
2022/05/05 11:56:24;;;;;;;46.78;23.90;;;;;;;20.67;46.71;102405.72;5068961;28;20049;-53
2022/05/05 12:01:42;;;;;;;43.60;22.23;;;;;;;20.68;46.01;102400.19;5066645;28;20040;-47
2022/05/05 12:04:10;;;;;;;45.60;22.25;;;;;;;20.70;46.36;102406.31;5064459;28;20064;-51
2022/05/05 12:06:39;;;;;;;50.88;20.80;;;;;;;20.73;46.51;102404.31;5068491;28;20083;-50